createdAt,value
2018-01-11T00:00:28.633Z,99289.45
2018-01-11T00:02:56.110Z,99301.17
2018-01-11T00:05:23.592Z,99294.06
2018-01-11T00:07:51.067Z,99296.49
2018-01-11T00:10:18.512Z,99293.94
2018-01-11T00:12:46.020Z,99296.03
2018-01-11T00:15:13.476Z,99292.15
2018-01-11T00:17:40.982Z,99298.81
2018-01-11T00:20:08.490Z,99299.64
2018-01-11T00:22:35.985Z,99296.99
2018-01-11T00:25:03.484Z,99300.21
2018-01-11T00:27:30.972Z,99301.12
2018-01-11T00:29:58.448Z,99299.05
2018-01-11T00:32:25.900Z,99297.76
2018-01-11T00:34:53.359Z,99291.38
2018-01-11T00:37:20.813Z,99292.70
2018-01-11T00:39:48.283Z,99294.32
2018-01-11T00:42:15.816Z,99298.09
2018-01-11T00:44:43.285Z,99304.55
2018-01-11T00:47:10.765Z,99301.59
2018-01-11T00:49:38.226Z,99298.48
2018-01-11T00:52:05.680Z,99304.78
2018-01-11T00:54:33.148Z,99304.02
2018-01-11T00:57:00.600Z,99311.63
2018-01-11T00:59:28.147Z,99307.86
2018-01-11T01:01:55.615Z,99311.69
2018-01-11T01:04:23.063Z,99316.31
2018-01-11T01:06:50.572Z,99318.77
2018-01-11T01:09:18.013Z,99323.44
2018-01-11T01:11:45.526Z,99322.28
2018-01-11T01:14:13.014Z,99320.25
2018-01-11T01:16:40.630Z,99322.89
2018-01-11T01:19:08.090Z,99318.84
2018-01-11T01:21:35.553Z,99318.88
2018-01-11T01:24:03.028Z,99319.75
2018-01-11T01:26:30.486Z,99321.09
2018-01-11T01:28:57.953Z,99315.66
2018-01-11T01:31:25.440Z,99314.48
2018-01-11T01:33:52.908Z,99311.98
2018-01-11T01:36:20.363Z,99307.78
2018-01-11T01:38:47.853Z,99312.45
2018-01-11T01:41:15.313Z,99313.77
2018-01-11T01:43:42.807Z,99307.91
2018-01-11T01:46:10.266Z,99310.03
2018-01-11T01:48:43.554Z,99303.68
2018-01-11T01:51:11.016Z,99306.68
2018-01-11T01:53:38.479Z,99309.25
2018-01-11T01:56:05.941Z,99302.55
2018-01-11T01:58:33.431Z,99308.45
2018-01-11T02:01:00.908Z,99311.83
2018-01-11T02:03:28.366Z,99302.20
2018-01-11T02:05:55.835Z,99309.34
2018-01-11T02:08:23.302Z,99307.26
2018-01-11T02:10:50.772Z,99307.26
2018-01-11T02:13:18.244Z,99311.52
2018-01-11T02:15:45.709Z,99308.60
2018-01-11T02:18:13.175Z,99307.37
2018-01-11T02:20:40.687Z,99302.76
2018-01-11T02:23:08.148Z,99306.16
2018-01-11T02:25:35.635Z,99301.48
2018-01-11T02:28:03.083Z,99301.09
2018-01-11T02:30:30.586Z,99300.23
2018-01-11T02:32:58.052Z,99291.36
2018-01-11T02:35:25.510Z,99289.64
2018-01-11T02:37:53.001Z,99286.68
2018-01-11T02:40:20.453Z,99291.32
2018-01-11T02:42:47.909Z,99293.03
2018-01-11T02:45:15.396Z,99289.63
2018-01-11T02:47:42.859Z,99299.31
2018-01-11T02:50:10.338Z,99293.36
2018-01-11T02:52:37.804Z,99297.58
2018-01-11T02:55:05.257Z,99300.98
2018-01-11T02:57:32.765Z,99296.77
2018-01-11T03:00:00.217Z,99291.72
2018-01-11T03:02:27.674Z,99285.75
2018-01-11T03:04:55.132Z,99284.86
2018-01-11T03:07:22.607Z,99283.61
2018-01-11T03:09:50.116Z,99291.30
2018-01-11T03:12:17.569Z,99302.25
2018-01-11T03:14:45.016Z,99306.09
2018-01-11T03:17:12.488Z,99303.98
2018-01-11T03:19:39.941Z,99294.71
2018-01-11T03:22:07.403Z,99304.41
2018-01-11T03:24:34.871Z,99299.80
2018-01-11T03:27:02.364Z,99307.80
2018-01-11T03:29:29.823Z,99309.92
2018-01-11T03:31:57.332Z,99305.72
2018-01-11T03:34:24.789Z,99304.41
2018-01-11T03:36:52.277Z,99307.80
2018-01-11T03:39:19.736Z,99302.30
2018-01-11T03:41:47.218Z,99306.10
2018-01-11T03:44:14.745Z,99301.91
2018-01-11T03:46:42.194Z,99303.62
2018-01-11T03:49:09.660Z,99297.31
2018-01-11T03:51:37.153Z,99291.46
2018-01-11T03:54:04.601Z,99290.17
2018-01-11T03:56:32.061Z,99284.27
2018-01-11T03:58:59.595Z,99285.95
2018-01-11T04:01:27.048Z,99288.92
2018-01-11T04:03:55.426Z,99289.31
2018-01-11T04:06:23.176Z,99287.65
2018-01-11T04:08:50.689Z,99288.52
2018-01-11T04:11:18.136Z,99285.10
2018-01-11T04:13:45.810Z,99293.98
2018-01-11T04:16:13.265Z,99296.94
2018-01-11T04:18:40.793Z,99295.25
2018-01-11T04:21:08.282Z,99296.09
2018-01-11T04:23:35.789Z,99294.41
2018-01-11T04:26:03.314Z,99291.48
2018-01-11T04:28:30.762Z,99292.31
2018-01-11T04:30:58.262Z,99296.95
2018-01-11T04:33:25.730Z,99294.83
2018-01-11T04:35:53.304Z,99294.41
2018-01-11T04:38:20.782Z,99297.42
2018-01-11T04:40:48.242Z,99288.96
2018-01-11T04:43:15.703Z,99299.09
2018-01-11T04:45:43.157Z,99301.20
2018-01-11T04:48:10.660Z,99298.68
2018-01-11T04:50:38.131Z,99301.67
2018-01-11T04:53:05.604Z,99310.10
2018-01-11T04:55:33.088Z,99308.45
2018-01-11T04:58:00.544Z,99310.13
2018-01-11T05:00:28.014Z,99311.81
2018-01-11T05:02:55.514Z,99321.11
2018-01-11T05:05:22.997Z,99316.91
2018-01-11T05:07:50.451Z,99322.41
2018-01-11T05:10:17.954Z,99320.70
2018-01-11T05:12:45.424Z,99318.59
2018-01-11T05:15:12.883Z,99324.11
2018-01-11T05:17:40.361Z,99319.43
2018-01-11T05:20:07.808Z,99322.80
2018-01-11T05:22:35.259Z,99321.53
2018-01-11T05:25:02.815Z,99318.59
2018-01-11T05:27:30.271Z,99324.50
2018-01-11T05:29:57.740Z,99319.87
2018-01-11T05:32:25.218Z,99321.98
2018-01-11T05:34:52.701Z,99324.09
2018-01-11T05:37:20.159Z,99325.80
2018-01-11T05:39:47.626Z,99333.41
2018-01-11T05:42:15.129Z,99333.84
2018-01-11T05:44:42.603Z,99334.27
2018-01-11T05:47:10.063Z,99339.34
2018-01-11T05:49:37.542Z,99338.47
2018-01-11T05:52:05.008Z,99345.23
2018-01-11T05:54:32.479Z,99344.38
2018-01-11T05:56:59.918Z,99350.27
2018-01-11T05:59:27.378Z,99345.61
2018-01-11T06:01:54.928Z,99351.93
2018-01-11T06:04:22.510Z,99359.92
2018-01-11T06:06:49.951Z,99362.53
2018-01-11T06:09:17.399Z,99363.80
2018-01-11T06:11:44.903Z,99370.56
2018-01-11T06:14:12.375Z,99368.06
2018-01-11T06:16:39.838Z,99371.86
2018-01-11T06:19:07.339Z,99368.05
2018-01-11T06:21:34.860Z,99363.84
2018-01-11T06:24:02.350Z,99360.83
2018-01-11T06:26:29.810Z,99364.66
2018-01-11T06:28:57.358Z,99356.62
2018-01-11T06:31:24.887Z,99354.55
2018-01-11T06:33:52.385Z,99356.29
2018-01-11T06:36:19.858Z,99361.82
2018-01-11T06:38:47.349Z,99361.41
2018-01-11T06:41:14.814Z,99365.63
2018-01-11T06:43:42.272Z,99365.70
2018-01-11T06:46:09.734Z,99369.06
2018-01-11T06:48:37.185Z,99370.80
2018-01-11T06:51:04.643Z,99375.44
2018-01-11T06:53:32.108Z,99375.02
2018-01-11T06:55:59.623Z,99382.66
2018-01-11T06:58:27.095Z,99383.10
2018-01-11T07:00:54.697Z,99384.80
2018-01-11T07:03:22.193Z,99392.00
2018-01-11T07:08:23.472Z,99392.83
2018-01-11T07:10:50.987Z,99393.28
2018-01-11T07:13:18.595Z,99390.30
2018-01-11T07:15:46.093Z,99384.78
2018-01-11T07:18:13.599Z,99374.59
2018-01-11T07:20:42.028Z,99374.19
2018-01-11T07:23:09.840Z,99374.19
2018-01-11T07:25:37.375Z,99377.55
2018-01-11T07:28:04.942Z,99380.09
2018-01-11T07:30:32.508Z,99385.20
2018-01-11T07:32:59.955Z,99382.66
2018-01-11T07:35:27.488Z,99380.94
2018-01-11T07:37:55.007Z,99382.64
2018-01-11T07:40:22.751Z,99383.06
2018-01-11T07:42:50.213Z,99385.63
2018-01-11T07:45:17.854Z,99383.53
2018-01-11T07:47:45.356Z,99389.03
2018-01-11T07:50:12.827Z,99392.83
2018-01-11T07:52:40.280Z,99389.86
2018-01-11T07:55:07.744Z,99399.19
2018-01-11T07:57:35.242Z,99408.93
2018-01-11T08:00:02.750Z,99411.86
2018-01-11T08:02:30.756Z,99419.91
2018-01-11T08:04:58.238Z,99421.19
2018-01-11T08:07:25.716Z,99419.06
2018-01-11T08:09:53.230Z,99417.80
2018-01-11T08:12:20.768Z,99423.30
2018-01-11T08:14:48.171Z,99415.27
2018-01-11T08:17:15.674Z,99419.06
2018-01-11T08:19:43.179Z,99419.89
2018-01-11T08:22:10.739Z,99422.88
2018-01-11T08:24:38.231Z,99424.56
2018-01-11T08:27:05.698Z,99433.46
2018-01-11T08:29:33.159Z,99436.02
2018-01-11T08:32:00.688Z,99441.52
2018-01-11T08:34:28.150Z,99438.14
2018-01-11T08:36:55.614Z,99438.98
2018-01-11T08:39:23.072Z,99437.29
2018-01-11T08:41:50.536Z,99441.53
2018-01-11T08:44:18.031Z,99435.17
2018-01-11T08:46:45.501Z,99436.86
2018-01-11T08:49:12.976Z,99429.23
2018-01-11T08:51:40.584Z,99441.09
2018-01-11T08:54:08.107Z,99447.89
2018-01-11T08:56:35.780Z,99445.34
2018-01-11T08:59:03.262Z,99439.83
2018-01-11T09:01:30.740Z,99444.06
2018-01-11T09:03:58.527Z,99442.36
2018-01-11T09:06:26.298Z,99448.70
2018-01-11T09:08:53.836Z,99450.38
2018-01-11T09:11:21.366Z,99454.17
2018-01-11T09:13:48.841Z,99457.95
2018-01-11T09:16:16.407Z,99459.17
2018-01-11T09:18:44.153Z,99457.52
2018-01-11T09:21:11.610Z,99457.09
2018-01-11T09:23:39.107Z,99456.70
2018-01-11T09:26:06.598Z,99458.38
2018-01-11T09:28:34.154Z,99449.06
2018-01-11T09:31:01.707Z,99451.58
2018-01-11T09:33:29.184Z,99452.02
2018-01-11T09:35:56.717Z,99451.61
2018-01-11T09:38:24.164Z,99446.55
2018-01-11T09:40:51.641Z,99449.08
2018-01-11T09:43:19.184Z,99451.61
2018-01-11T09:45:46.663Z,99443.13
2018-01-11T09:48:14.274Z,99445.22
2018-01-11T09:50:41.757Z,99446.00
2018-01-11T09:53:09.301Z,99444.67
2018-01-11T09:55:36.830Z,99438.68
2018-01-11T09:58:04.358Z,99443.30
2018-01-11T10:00:31.868Z,99443.64
2018-01-11T10:02:59.416Z,99440.53
2018-01-11T10:05:27.130Z,99438.20
2018-01-11T10:07:54.600Z,99427.00
2018-01-11T10:10:22.087Z,99423.86
2018-01-11T10:12:49.572Z,99418.79
2018-01-11T10:15:17.204Z,99427.66
2018-01-11T10:17:44.712Z,99421.66
2018-01-11T10:20:12.197Z,99420.74
2018-01-11T10:22:39.703Z,99414.34
2018-01-11T10:25:07.159Z,99414.17
2018-01-11T10:27:34.645Z,99416.21
2018-01-11T10:30:02.151Z,99424.72
2018-01-11T10:32:29.609Z,99419.28
2018-01-11T10:34:57.087Z,99419.31
2018-01-11T10:37:24.580Z,99416.24
2018-01-11T10:39:52.102Z,99405.97
2018-01-11T10:42:19.575Z,99408.06
2018-01-11T10:44:47.047Z,99415.22
2018-01-11T10:47:14.556Z,99410.94
2018-01-11T10:49:42.048Z,99405.54
2018-01-11T10:52:09.678Z,99405.41
2018-01-11T10:54:37.268Z,99406.19
2018-01-11T10:57:04.746Z,99406.70
2018-01-11T10:59:32.205Z,99402.98
2018-01-11T11:05:01.860Z,99396.83
2018-01-11T11:07:29.339Z,99399.03
2018-01-11T11:09:56.806Z,99398.15
2018-01-11T11:12:24.335Z,99392.92
2018-01-11T11:14:51.818Z,99390.06
2018-01-11T11:17:19.478Z,99392.30
2018-01-11T11:19:46.936Z,99387.23
2018-01-11T11:22:14.604Z,99392.27
2018-01-11T11:24:42.145Z,99393.97
2018-01-11T11:27:09.605Z,99392.45
2018-01-11T11:29:37.135Z,99395.63
2018-01-11T11:32:04.587Z,99396.52
2018-01-11T11:34:32.224Z,99396.17
2018-01-11T11:36:59.811Z,99389.81
2018-01-11T11:39:27.295Z,99388.88
2018-01-11T11:41:54.786Z,99390.25
2018-01-11T11:44:22.270Z,99392.33
2018-01-11T11:46:49.766Z,99393.09
2018-01-11T11:49:17.259Z,99390.08
2018-01-11T11:51:44.699Z,99390.63
2018-01-11T11:54:12.156Z,99385.77
2018-01-11T11:56:39.696Z,99393.34
2018-01-11T11:59:07.196Z,99393.10
2018-01-11T12:01:34.692Z,99392.42
2018-01-11T12:04:02.175Z,99390.78
2018-01-11T12:06:29.634Z,99393.86
2018-01-11T12:08:57.095Z,99400.27
2018-01-11T12:11:24.592Z,99404.67
2018-01-11T12:13:52.076Z,99402.21
2018-01-11T12:16:19.561Z,99396.29
2018-01-11T12:18:47.247Z,99399.72
2018-01-11T12:21:15.441Z,99409.47
2018-01-11T12:23:42.935Z,99400.56
2018-01-11T12:26:10.398Z,99408.59
2018-01-11T12:28:37.867Z,99413.75
2018-01-11T12:31:05.333Z,99411.72
2018-01-11T12:33:32.806Z,99416.45
2018-01-11T12:36:00.288Z,99415.59
2018-01-11T12:38:27.783Z,99425.42
2018-01-11T12:40:55.265Z,99419.92
2018-01-11T12:43:22.752Z,99425.02
2018-01-11T12:45:50.262Z,99420.78
2018-01-11T12:48:17.743Z,99430.13
2018-01-11T12:50:45.206Z,99434.88
2018-01-11T12:53:12.679Z,99429.33
2018-01-11T12:55:40.233Z,99432.73
2018-01-11T12:58:07.705Z,99431.03
2018-01-11T13:00:35.211Z,99429.66
2018-01-11T13:03:02.731Z,99431.38
2018-01-11T13:05:30.204Z,99431.39
2018-01-11T13:07:57.779Z,99438.19
2018-01-11T13:10:25.352Z,99436.88
2018-01-11T13:12:52.888Z,99433.94
2018-01-11T13:15:20.367Z,99438.19
2018-01-11T13:17:47.890Z,99437.73
2018-01-11T13:20:15.637Z,99436.94
2018-01-11T13:22:43.219Z,99438.11
2018-01-11T13:25:10.849Z,99437.64
2018-01-11T13:27:38.566Z,99440.15
2018-01-11T13:30:06.094Z,99442.20
2018-01-11T13:32:34.061Z,99444.23
2018-01-11T13:35:03.255Z,99445.98
2018-01-11T13:37:31.274Z,99450.30
2018-01-11T13:39:58.904Z,99450.36
2018-01-11T13:42:29.561Z,99451.28
2018-01-11T13:44:57.121Z,99450.48
2018-01-11T13:47:24.655Z,99450.52
2018-01-11T13:49:52.134Z,99462.47
2018-01-11T13:52:19.728Z,99464.60
2018-01-11T13:54:48.319Z,99471.00
2018-01-11T13:57:15.925Z,99471.06
2018-01-11T13:59:43.505Z,99472.34
2018-01-11T14:02:11.067Z,99469.38
2018-01-11T14:04:38.609Z,99476.21
2018-01-11T14:07:06.106Z,99477.95
2018-01-11T14:09:33.647Z,99484.32
2018-01-11T14:12:01.445Z,99484.34
2018-01-11T14:14:29.572Z,99485.63
2018-01-11T14:16:57.084Z,99492.46
2018-01-11T14:19:24.596Z,99490.80
2018-01-11T14:21:52.062Z,99497.52
2018-01-11T14:24:19.603Z,99498.81
2018-01-11T14:26:47.102Z,99497.55
2018-01-11T14:29:14.614Z,99497.52
2018-01-11T14:31:42.168Z,99499.19
2018-01-11T14:34:09.684Z,99500.44
2018-01-11T14:36:37.256Z,99499.16
2018-01-11T14:39:05.377Z,99506.00
2018-01-11T14:41:32.877Z,99509.42
2018-01-11T14:44:00.475Z,99511.15
2018-01-11T14:46:27.931Z,99513.73
2018-01-11T14:48:55.464Z,99514.98
2018-01-11T14:51:22.951Z,99512.88
2018-01-11T14:53:50.465Z,99517.58
2018-01-11T14:56:17.958Z,99523.97
2018-01-11T14:58:45.504Z,99523.50
2018-01-11T15:01:12.982Z,99523.14
2018-01-11T15:03:40.460Z,99526.52
2018-01-11T15:06:08.025Z,99522.30
2018-01-11T15:08:35.588Z,99531.99
2018-01-11T15:11:03.136Z,99532.88
2018-01-11T15:13:30.646Z,99535.87
2018-01-11T15:15:58.126Z,99536.73
2018-01-11T15:18:25.717Z,99544.80
2018-01-11T15:20:53.347Z,99551.59
2018-01-11T15:23:20.811Z,99549.47
2018-01-11T15:25:48.459Z,99551.61
2018-01-11T15:28:17.009Z,99558.83
2018-01-11T15:30:44.482Z,99570.70
2018-01-11T15:33:11.974Z,99574.97
2018-01-11T15:35:39.479Z,99574.55
2018-01-11T15:38:06.955Z,99571.58
2018-01-11T15:40:34.616Z,99572.84
2018-01-11T15:43:02.115Z,99580.91
2018-01-11T15:45:29.584Z,99582.61
2018-01-11T15:47:57.091Z,99581.77
2018-01-11T15:50:24.582Z,99588.11
2018-01-11T15:52:52.050Z,99589.41
2018-01-11T15:55:19.618Z,99593.20
2018-01-11T15:57:47.079Z,99597.46
2018-01-11T16:00:14.535Z,99604.65
2018-01-11T16:02:42.032Z,99605.08
2018-01-11T16:05:09.502Z,99605.91
2018-01-11T16:07:36.984Z,99597.45
2018-01-11T16:10:04.527Z,99604.23
2018-01-11T16:12:32.002Z,99606.79
2018-01-11T16:14:59.483Z,99608.48
2018-01-11T16:17:27.012Z,99599.56
2018-01-11T16:19:54.488Z,99608.04
2018-01-11T16:22:21.975Z,99615.27
2018-01-11T16:24:49.982Z,99614.84
2018-01-11T16:27:17.712Z,99618.20
2018-01-11T16:29:45.310Z,99614.83
2018-01-11T16:32:12.779Z,99619.91
2018-01-11T16:34:40.277Z,99629.66
2018-01-11T16:37:07.752Z,99622.44
2018-01-11T16:39:35.268Z,99628.39
2018-01-11T16:42:02.804Z,99622.45
2018-01-11T16:44:30.533Z,99630.50
2018-01-11T16:46:58.082Z,99630.91
2018-01-11T16:49:25.608Z,99636.88
2018-01-11T16:51:53.108Z,99629.66
2018-01-11T16:54:20.621Z,99639.84
2018-01-11T16:56:48.087Z,99640.27
2018-01-11T16:59:15.557Z,99639.83
2018-01-11T17:01:43.178Z,99641.53
2018-01-11T17:04:10.676Z,99638.14
2018-01-11T17:06:38.159Z,99644.91
2018-01-11T17:09:05.656Z,99647.02
2018-01-11T17:11:33.177Z,99653.82
2018-01-11T17:14:00.631Z,99650.84
2018-01-11T17:16:28.164Z,99654.66
2018-01-11T17:18:55.656Z,99666.48
2018-01-11T17:21:23.109Z,99659.28
2018-01-11T17:23:50.596Z,99668.59
2018-01-11T17:26:18.323Z,99671.55
2018-01-11T17:28:46.957Z,99668.58
2018-01-11T17:31:14.504Z,99674.97
2018-01-11T17:33:41.958Z,99671.13
2018-01-11T17:36:09.647Z,99677.05
2018-01-11T17:38:41.087Z,99679.60
2018-01-11T17:41:08.563Z,99677.92
2018-01-11T17:43:36.078Z,99677.07
2018-01-11T17:46:03.616Z,99688.09
2018-01-11T17:48:31.449Z,99679.17
2018-01-11T17:50:58.986Z,99680.84
2018-01-11T17:53:26.466Z,99692.23
2018-01-11T17:55:54.000Z,99683.36
2018-01-11T17:58:21.508Z,99684.17
2018-01-11T18:00:49.293Z,99689.29
2018-01-11T18:03:19.501Z,99687.16
2018-01-11T18:05:47.015Z,99683.77
2018-01-11T18:08:14.677Z,99692.22
2018-01-11T18:10:44.076Z,99687.99
2018-01-11T18:13:11.653Z,99689.67
2018-01-11T18:15:39.194Z,99686.70
2018-01-11T18:18:06.743Z,99692.62
2018-01-11T18:20:34.235Z,99690.53
2018-01-11T18:23:04.686Z,99695.61
2018-01-11T18:25:32.205Z,99699.87
2018-01-11T18:27:59.760Z,99700.69
2018-01-11T18:30:27.446Z,99698.14
2018-01-11T18:32:54.975Z,99699.89
2018-01-11T18:35:22.552Z,99703.64
2018-01-11T18:37:50.213Z,99699.81
2018-01-11T18:40:18.410Z,99693.91
2018-01-11T18:42:46.036Z,99693.48
2018-01-11T18:45:13.597Z,99697.29
2018-01-11T18:47:41.058Z,99705.34
2018-01-11T18:50:08.584Z,99706.62
2018-01-11T18:52:36.066Z,99703.63
2018-01-11T18:55:03.599Z,99713.81
2018-01-11T18:57:31.108Z,99710.42
2018-01-11T18:59:58.570Z,99715.06
2018-01-11T19:02:26.031Z,99713.79
2018-01-11T19:04:53.503Z,99714.61
2018-01-11T19:07:21.015Z,99723.50
2018-01-11T19:09:48.489Z,99726.07
2018-01-11T19:12:15.979Z,99721.39
2018-01-11T19:14:43.509Z,99726.44
2018-01-11T19:17:11.119Z,99728.56
2018-01-11T19:19:38.613Z,99731.60
2018-01-11T19:22:06.109Z,99734.56
2018-01-11T19:24:33.586Z,99727.35
2018-01-11T19:27:01.143Z,99737.54
2018-01-11T19:29:32.255Z,99735.44
2018-01-11T19:31:59.753Z,99737.97
2018-01-11T19:34:27.230Z,99734.95
2018-01-11T19:36:54.720Z,99735.44
2018-01-11T19:39:22.192Z,99730.82
2018-01-11T19:41:49.692Z,99741.37
2018-01-11T19:44:17.270Z,99738.44
2018-01-11T19:46:44.744Z,99750.64
2018-01-11T19:49:12.242Z,99740.05
2018-01-11T19:51:39.777Z,99739.58
2018-01-11T19:54:07.254Z,99739.64
2018-01-11T19:56:35.480Z,99740.88
2018-01-11T19:59:02.991Z,99739.55
2018-01-11T20:01:30.524Z,99747.97
2018-01-11T20:03:58.052Z,99753.42
2018-01-11T20:06:25.541Z,99753.88
2018-01-11T20:08:53.023Z,99752.58
2018-01-11T20:11:20.524Z,99758.09
2018-01-11T20:13:47.996Z,99753.45
2018-01-11T20:16:16.493Z,99758.97
2018-01-11T20:18:44.421Z,99754.03
2018-01-11T20:21:11.961Z,99753.55
2018-01-11T20:23:39.446Z,99760.71
2018-01-11T20:26:07.062Z,99762.37
2018-01-11T20:28:34.600Z,99764.89
2018-01-11T20:31:02.100Z,99767.95
2018-01-11T20:33:29.635Z,99764.19
2018-01-11T20:35:57.228Z,99763.34
2018-01-11T20:38:24.804Z,99768.00
2018-01-11T20:40:52.291Z,99766.67
2018-01-11T20:43:19.876Z,99772.22
2018-01-11T20:45:47.401Z,99772.23
2018-01-11T20:48:14.927Z,99774.70
2018-01-11T20:50:42.458Z,99773.02
2018-01-11T20:53:10.046Z,99770.89
2018-01-11T20:55:37.551Z,99776.34
2018-01-11T20:58:05.208Z,99771.73
2018-01-11T21:00:32.851Z,99773.84
2018-01-11T21:03:00.321Z,99774.72
2018-01-11T21:05:27.803Z,99784.05
2018-01-11T21:07:55.288Z,99789.16
2018-01-11T21:10:22.747Z,99790.41
2018-01-11T21:12:50.241Z,99798.40
2018-01-11T21:15:18.286Z,99790.39
2018-01-11T21:17:45.747Z,99795.48
2018-01-11T21:20:13.243Z,99803.06
2018-01-11T21:22:40.756Z,99799.32
2018-01-11T21:25:08.249Z,99798.08
2018-01-11T21:27:35.742Z,99811.59
2018-01-11T21:30:03.368Z,99805.64
2018-01-11T21:32:30.878Z,99805.27
2018-01-11T21:34:58.428Z,99805.24
2018-01-11T21:37:25.907Z,99810.33
2018-01-11T21:39:53.360Z,99812.40
2018-01-11T21:42:20.877Z,99814.57
2018-01-11T21:44:48.369Z,99819.65
2018-01-11T21:47:19.205Z,99833.22
2018-01-11T21:49:47.198Z,99824.30
2018-01-11T21:52:16.334Z,99836.59
2018-01-11T21:54:47.776Z,99835.00
2018-01-11T21:57:19.113Z,99829.94
2018-01-11T21:59:49.259Z,99837.53
2018-01-11T22:02:17.252Z,99843.48
2018-01-11T22:04:44.910Z,99838.79
2018-01-11T22:07:16.454Z,99831.13
2018-01-11T22:22:39.257Z,99849.08
2018-01-11T22:25:06.779Z,99846.52
2018-01-11T22:27:35.323Z,99859.22
2018-01-11T22:30:03.018Z,99850.70
2018-01-11T22:32:30.542Z,99853.70
2018-01-11T22:35:01.858Z,99852.35
2018-01-11T22:37:30.261Z,99855.69
2018-01-11T22:40:04.806Z,99860.28
2018-01-11T22:42:35.726Z,99861.52
2018-01-11T22:45:03.251Z,99862.70
2018-01-11T22:47:31.180Z,99868.14
2018-01-11T22:49:58.949Z,99866.89
2018-01-11T22:52:26.695Z,99864.41
2018-01-11T22:55:02.777Z,99861.44
2018-01-11T22:57:31.325Z,99865.58
2018-01-11T23:00:00.688Z,99868.12
2018-01-11T23:02:31.886Z,99864.73
2018-01-11T23:05:00.744Z,99870.59
2018-01-11T23:07:28.271Z,99870.19
2018-01-11T23:09:58.712Z,99875.36
2018-01-11T23:12:26.895Z,99871.93
2018-01-11T23:14:54.437Z,99872.72
2018-01-11T23:17:21.879Z,99879.53
2018-01-11T23:19:49.339Z,99880.84
2018-01-11T23:22:16.845Z,99878.31
2018-01-11T23:24:44.376Z,99873.58
2018-01-11T23:27:12.062Z,99875.72
2018-01-11T23:29:39.523Z,99878.72
2018-01-11T23:32:07.046Z,99888.50
2018-01-11T23:34:35.407Z,99881.66
2018-01-11T23:37:02.925Z,99885.03
2018-01-11T23:39:30.391Z,99890.95
2018-01-11T23:41:58.043Z,99892.28
2018-01-11T23:44:25.564Z,99892.30
2018-01-11T23:46:53.137Z,99889.77
2018-01-11T23:49:20.618Z,99886.78
2018-01-11T23:51:48.087Z,99886.00
2018-01-11T23:54:15.707Z,99887.72
2018-01-11T23:56:43.200Z,99888.59
2018-01-11T23:59:10.655Z,99894.86
